Home > Products > Valid Products > TAF

000
FTUS45 KMSO 242300
TAFSMN
TAF
KSMN 242320Z 2500/2524 36009KT P6SM VCSH OVC070
     FM250900 VRB06KT P6SM VCSH BKN050 OVC090
     FM251500 VRB06KT 6SM -SHRA BKN030 OVC050
      AMD LTD TO CLD VIS AND WIND=



000
FTUS45 KMSO 242300
TAFBTM
TAF
KBTM 242320Z 2500/2524 36008KT P6SM VCSH BKN060 OVC100
     FM250600 VRB04KT P6SM BKN100
     FM252000 29006KT P6SM -SHRA SCT030 OVC050=



000
FTUS45 KMSO 242300
TAFMSO
TAF
KMSO 242320Z 2500/2524 27011KT P6SM -SHRA BKN050 OVC100
     FM250400 VRB06KT P6SM OVC100
     FM252300 33012KT P6SM VCSH SCT030 OVC050=



000
FTUS45 KMSO 242300
TAFGPI
TAF
KGPI 242320Z 2500/2524 17015KT P6SM -SHRA BKN035 OVC050
     FM250400 20006KT P6SM BKN100=



000
FTUS45 KMSO 242200 AAA
TAFSMN
TAF AMD
KSMN 242212Z 2422/2518 20012G22KT P6SM VCSH OVC070
     FM250200 25010KT P6SM VCSH OVC070
      TEMPO 2502/2503 -TSRA OVC070CB
     FM250300 VRB06KT P6SM BKN050 OVC100
      AMD LTD TO CLD VIS AND WIND=



000
FTUS45 KMSO 242200 AAB
TAFBTM
TAF AMD
KBTM 242207Z 2422/2518 25010G20KT P6SM -SHRA BKN040 OVC100
     FM250400 32006KT P6SM VCSH BKN050
     FM251200 29004KT P6SM BKN050=



000
FTUS45 KMSO 242200 AAA
TAFMSO
TAF AMD
KMSO 242205Z 2422/2518 VRB06KT P6SM -SHRA BKN035 OVC060
     FM250400 VRB06KT P6SM VCSH BKN040 OVC060
     FM251200 29004KT P6SM BKN050=



000
FTUS45 KMSO 242200 AAA
TAFGPI
TAF AMD
KGPI 242204Z 2422/2518 17015KT P6SM -SHRA BKN035 OVC050
     FM250400 20006KT P6SM VCSH BKN060
     FM251200 23002KT P6SM BKN040=



000
FTUS45 KMSO 241700 AAA
TAFBTM
TAF AMD
KBTM 241724Z 2417/2518 20012KT P6SM OVC060
     FM242300 29012G25KT P6SM -SHRA OVC040
     FM250400 32006KT P6SM VCSH BKN050
     FM251200 29004KT P6SM BKN050=



000
FTUS45 KMSO 241700
TAFSMN
TAF
KSMN 241720Z 2418/2518 23012G22KT P6SM OVC050
     FM250300 25010KT P6SM BKN050
      AMD LTD TO CLD VIS AND WIND=



000
FTUS45 KMSO 241700
TAFGPI
TAF
KGPI 241720Z 2418/2518 19004KT P6SM -RA BKN020 OVC040
     FM242300 20005KT P6SM -SHRA BKN030 OVC040
     FM250400 20006KT P6SM VCSH SCT040 BKN060
     FM251200 23002KT P6SM BKN040=



000
FTUS45 KMSO 241700
TAFBTM
TAF
KBTM 241720Z 2418/2518 16004KT P6SM OVC060
     FM242300 29012G20KT P6SM -SHRA OVC040
     FM250400 32006KT P6SM VCSH BKN050
     FM251200 29004KT P6SM BKN050=



000
FTUS45 KMSO 241700
TAFMSO
TAF
KMSO 241720Z 2418/2518 00000KT P6SM VCSH OVC090
     FM241900 29010KT P6SM -SHRA BKN025 OVC040
     FM250300 27006KT P6SM VCSH BKN040 OVC060
     FM251200 29004KT P6SM BKN050=



000
FTUS45 KMSO 241100
TAFSMN
TAF
KSMN 241128Z 2412/2512 33003KT P6SM OVC070
     FM241700 25012KT P6SM -SHRA BKN030 OVC050
     FM242100 25012G21KT P6SM BKN050
      AMD LTD TO CLD VIS AND WIND=



000
FTUS45 KMSO 241100
TAFGPI
TAF
KGPI 241128Z 2412/2512 23005KT P6SM VCSH BKN040 OVC060
     FM242100 17012G19KT 5SM -RA BKN015 OVC030
     FM250200 20008KT P6SM -SHRA BKN030 OVC040
     FM250400 20006KT P6SM VCSH SCT040 BKN060=



000
FTUS45 KMSO 241100
TAFBTM
TAF
KBTM 241128Z 2412/2512 16004KT P6SM OVC060
     FM241700 25012G22KT P6SM -SHRA OVC040
     FM250300 28006KT P6SM VCSH BKN050=



000
FTUS45 KMSO 241100
TAFMSO
TAF
KMSO 241128Z 2412/2512 00000KT P6SM VCSH OVC090
      TEMPO 2412/2413 P6SM BKN007
     FM241330 23009KT P6SM -SHRA SCT010 BKN030 OVC040
     FM242100 27010G18KT P6SM -SHRA BKN025 OVC035
     FM250300 27006KT P6SM VCSH BKN040 OVC060=



000
FTUS45 KMSO 241000 AAA
TAFBTM
TAF AMD
KBTM 241030Z 2411/2506 22004KT P6SM BKN060
     FM241700 29012G22KT P6SM -SHRA OVC050
     FM250300 27006KT P6SM VCSH BKN050=



000
FTUS45 KMSO 241000 AAA
TAFMSO
TAF AMD
KMSO 241030Z 2411/2506 00000KT P6SM SCT006 OVC090
     FM241300 23009KT P6SM -SHRA BKN030 OVC040
     FM242000 27010G18KT P6SM -SHRA BKN025 OVC035
     FM250300 27006KT P6SM VCSH BKN040 OVC060=



000
FTUS45 KMSO 240500
TAFMSO
TAF
KMSO 240540Z 2406/2506 02005KT P6SM -RA BKN018 OVC040
     FM241300 23009KT P6SM -SHRA BKN030 OVC040
     FM242000 27010G18KT P6SM -SHRA BKN025 OVC035
     FM250300 27006KT P6SM VCSH BKN040 OVC060=



000
FTUS45 KMSO 240500
TAFGPI
TAF
KGPI 240540Z 2406/2506 20009KT P6SM OVC050
     FM241200 VRB05KT P6SM -SHRA BKN025 OVC035
     FM242100 17012G19KT 5SM -RA BKN015 OVC030
     FM250200 20008KT P6SM -SHRA BKN030 OVC040
     FM250400 20006KT P6SM VCSH SCT040 BKN060=



000
FTUS45 KMSO 240500
TAFSMN
TAF
KSMN 240540Z 2406/2506 21009KT P6SM SKC
     FM241700 27010KT P6SM -SHRA OVC050
     FM242100 26010G18KT P6SM BKN050
      AMD LTD TO CLD VIS AND WIND=



000
FTUS45 KMSO 240500
TAFBTM
TAF
KBTM 240540Z 2406/2506 22010G15KT P6SM OVC080
     FM241700 29012G22KT P6SM -SHRA OVC050
     FM250300 27006KT P6SM VCSH BKN050=



000
FTUS45 KMSO 232300
TAFGPI
TAF
KGPI 232320Z 2400/2424 26015G30KT P6SM VCSH BKN050
     FM240200 24010KT P6SM BKN060
     FM240400 19007KT P6SM OVC060
     FM241600 18010KT P6SM -SHRA OVC040=



000
FTUS45 KMSO 232300
TAFMSO
TAF
KMSO 232320Z 2400/2424 26010G25KT P6SM VCSH BKN060
     FM240200 25005KT P6SM BKN070
     FM241800 23009KT P6SM -SHRA OVC050=



000
FTUS45 KMSO 232300
TAFBTM
TAF
KBTM 232320Z 2400/2424 26018G28KT P6SM VCSH SCT035 BKN050
     FM240300 24009KT P6SM BKN050
     FM242200 29012KT P6SM -SHRA OVC050=



000
FTUS45 KMSO 232300
TAFSMN
TAF
KSMN 232320Z 2400/2424 23010G20KT P6SM BKN100
     FM240200 22008KT P6SM BKN100
     FM242300 30012KT P6SM -SHRA OVC050
      AMD LTD TO CLD VIS AND WIND=



000
FTUS45 KMSO 231700
TAFGPI
TAF
KGPI 231725Z 2318/2418 24010KT P6SM VCSH BKN060
     FM231830 22017G24KT P6SM -SHRASN BKN040 BKN050
     FM240200 22010KT P6SM BKN100=



000
FTUS45 KMSO 231700
TAFSMN
TAF
KSMN 231725Z 2318/2418 20011KT P6SM VCSH OVC070
     FM231900 26015G22KT P6SM VCSH SCT060 BKN100
     FM240000 22009KT P6SM BKN100
      AMD LTD TO CLD VIS AND WIND=



000
FTUS45 KMSO 231700
TAFBTM
TAF
KBTM 231725Z 2318/2418 22010KT P6SM BKN060
     FM231900 27017G24KT P6SM BKN060
     FM232000 28018G28KT P6SM -SHSN BKN035 BKN050
      TEMPO 2320/2322 3SM -SN BKN030
     FM240300 30012KT P6SM BKN050=



000
FTUS45 KMSO 231700
TAFMSO
TAF
KMSO 231725Z 2318/2418 17009KT P6SM VCSH BKN050
     FM231900 27018G28KT P6SM VCSH BKN060
     FM240200 28010KT P6SM BKN070=



000
FTUS45 KMSO 231300 AAA
TAFBTM
TAF AMD
KBTM 231341Z 2314/2412 30010KT P6SM BKN050
     FM231600 29017G24KT P6SM BKN070
     FM231900 27022G30KT P6SM -SHSN BKN050
     FM240300 30012KT P6SM BKN050=



000
FTUS45 KMSO 231100
TAFMSO
TAF
KMSO 231127Z 2312/2412 30010KT P6SM BKN050
     FM231800 27018G28KT P6SM VCSH BKN070
     FM240200 28010KT P6SM BKN070=



000
FTUS45 KMSO 231100
TAFBTM
TAF
KBTM 231127Z 2312/2412 30010KT P6SM BKN070
     FM231600 29017G24KT P6SM BKN070
     FM240300 30012KT P6SM BKN050=



000
FTUS45 KMSO 231100
TAFGPI
TAF
KGPI 231127Z 2312/2412 19012KT P6SM BKN040
     FM231700 22018G28KT P6SM VCSH BKN060
     FM240200 22010KT P6SM BKN100=



000
FTUS45 KMSO 231100
TAFSMN
TAF
KSMN 231127Z 2312/2412 29006KT P6SM VCSH BKN050 OVC070
     FM231900 28015G22KT P6SM VCSH SCT060 BKN100
     FM240000 30009KT P6SM BKN100
      AMD LTD TO CLD VIS AND WIND=



000
FTUS45 KMSO 230500
TAFGPI
TAF
KGPI 230520Z 2306/2406 19012KT P6SM VCSH BKN040
     FM231600 23015G25KT P6SM BKN060
     FM240200 22008KT P6SM BKN100=



000
FTUS45 KMSO 230500
TAFSMN
TAF
KSMN 230520Z 2306/2406 29006KT P6SM VCSH BKN050 OVC070
      AMD LTD TO CLD VIS AND WIND=



000
FTUS45 KMSO 230500
TAFBTM
TAF
KBTM 230520Z 2306/2406 31011KT 2SM -SN BR BKN015
     FM230730 30010KT P6SM VCSH BKN030
     FM231600 29017G24KT P6SM BKN050
     FM240300 29005KT P6SM BKN050=



000
FTUS45 KMSO 230500
TAFMSO
TAF
KMSO 230520Z 2306/2406 30010KT P6SM VCSH BKN050
     FM231800 27018G28KT P6SM BKN070
     FM240200 28006KT P6SM BKN070=



000
FTUS45 KMSO 230000 AAA
TAFMSO
TAF AMD
KMSO 230040Z 2301/2324 31017KT P6SM -SHRA BKN035 OVC060
     FM230200 30010KT P6SM VCSH BKN035 BKN050
     FM230600 30006KT P6SM BKN050
     FM232000 27018G28KT P6SM BKN070=



000
FTUS45 KMSO 222300
TAFMSO
TAF
KMSO 222337Z 2300/2324 31008KT P6SM -SHRA BKN040 OVC060
     FM230400 30008KT P6SM VCSH BKN035 BKN050
     FM230600 30006KT P6SM BKN050
     FM232000 27018G28KT P6SM BKN070=



000
FTUS45 KMSO 222300
TAFGPI
TAF
KGPI 222337Z 2300/2324 20008KT P6SM -SHRA BKN040 OVC060
     FM230400 19012KT P6SM VCSH BKN040
     FM231800 19015G25KT P6SM BKN060=



000
FTUS45 KMSO 222300
TAFBTM
TAF
KBTM 222337Z 2300/2324 35015G25KT 4SM -RA BR BKN022 BKN050
     FM230200 30015G22KT 2SM -SN BR BKN015 OVC030
     FM230600 30012KT P6SM VCSH SCT020 BKN040=



000
FTUS45 KMSO 222300
TAFSMN
TAF
KSMN 222337Z 2300/2324 01010KT P6SM -SHRA BKN035 OVC050
     FM230200 27010KT P6SM VCSH BKN050 OVC070
      AMD LTD TO CLD VIS AND WIND=



000
FTUS45 KMSO 222100 AAC
TAFBTM
TAF AMD
KBTM 222137Z 2222/2318 29020G30KT 4SM TSRAGS BKN040CB
     FM222200 29015G25KT P6SM -SHRA BKN040 OVC060
     FM230000 29015G25KT 4SM -SHSN BKN025 BKN050
     FM230200 30015G22KT 2SM -SN BR BKN015 OVC030
     FM230700 30012KT P6SM VCSH SCT020 BKN040=



000
FTUS45 KMSO 222100 AAB
TAFBTM
TAF AMD
KBTM 222133Z 2222/2318 29015G25KT P6SM -SHRA BKN040 OVC060
     FM230000 29015G25KT 4SM -SHSN BKN025 BKN050
     FM230200 30015G22KT 2SM -SN BR BKN015 OVC030
     FM230700 30012KT P6SM VCSH SCT020 BKN040=



000
FTUS45 KMSO 221800 AAA
TAFBTM
TAF AMD
KBTM 221843Z 2219/2318 16011G22KT P6SM SCT060 BKN080 OVC150
     FM222100 29022G35KT P6SM -SHRA BKN040 OVC060
      TEMPO 2221/2223 30025G40KT 4SM -TSRA BKN025CB
     FM230000 29015G25KT 4SM -SHSN BKN025 BKN050
     FM230200 30015G22KT 2SM -SN BR BKN015 OVC030
     FM230700 30012KT P6SM VCSH SCT020 BKN040=



000
FTUS45 KMSO 221700
TAFSMN
TAF
KSMN 221729Z 2218/2318 21010KT P6SM -SHRA BKN060 OVC080
     FM222100 33015G25KT P6SM -SHRA OVC050
     FM230200 27010KT P6SM VCSH BKN050 OVC070
      AMD LTD TO CLD VIS AND WIND=



000
FTUS45 KMSO 221700
TAFMSO
TAF
KMSO 221729Z 2218/2318 31014G22KT P6SM VCSH BKN060 OVC100
     FM221900 31019G27KT P6SM -SHRA BKN040 OVC060
     FM230400 30010KT P6SM VCSH BKN030 BKN050=



000
FTUS45 KMSO 221700
TAFBTM
TAF
KBTM 221729Z 2218/2318 18009KT P6SM SCT060 BKN080 OVC150
     FM222100 29022G35KT P6SM -SHRA BKN040 OVC060
      TEMPO 2221/2223 30025G40KT 4SM -TSRA BKN025CB
     FM230000 29015G25KT 4SM -SHSN BKN025 BKN050
     FM230200 30015G22KT 2SM -SN BR BKN015 OVC030
     FM230700 30012KT P6SM VCSH SCT020 BKN040=



000
FTUS45 KMSO 221700
TAFGPI
TAF
KGPI 221729Z 2218/2318 18010KT P6SM VCSH BKN070 OVC100
     FM222100 24012G20KT P6SM -SHRA BKN040 OVC060
     FM230200 19010G15KT P6SM BKN040=



000
FTUS45 KMSO 221400 AAA
TAFBTM
TAF AMD
KBTM 221428Z 2214/2312 17006KT P6SM BKN100 BKN200
     FM221800 18010G20KT P6SM VCSH BKN090 BKN150
     FM222200 29022G34KT P6SM VCTS BKN040CB OVC060
     FM230000 29015G25KT 4SM -SHSN BKN025 BKN050=



000
FTUS45 KMSO 221100
TAFBTM
TAF
KBTM 221122Z 2212/2312 16006KT P6SM BKN150
     FM221800 16010G20KT P6SM VCSH OVC120
     FM222200 27015G25KT P6SM -SHRA OVC050=



000
FTUS45 KMSO 221100
TAFSMN
TAF
KSMN 221122Z 2212/2312 VRB03KT P6SM BKN150
     FM221800 21010KT P6SM VCSH OVC090
     FM222200 33015G25KT P6SM -SHRA OVC050
      AMD LTD TO CLD VIS AND WIND=



000
FTUS45 KMSO 221100
TAFMSO
TAF
KMSO 221122Z 2212/2312 11006KT P6SM OVC120
     FM221800 30008KT P6SM VCSH OVC080
     FM222200 33013G25KT P6SM -RA OVC050=



000
FTUS45 KMSO 221100
TAFGPI
TAF
KGPI 221122Z 2212/2312 VRB04KT P6SM OVC100
     FM221800 16010KT P6SM VCSH OVC070
     FM222200 25010G20KT P6SM -RA OVC050=



000
FTUS45 KMSO 220500
TAFGPI
TAF
KGPI 220524Z 2206/2306 VRB04KT P6SM OVC100
     FM221800 16010KT P6SM VCSH OVC070
     FM222200 25010G20KT P6SM -RA OVC050=



000
FTUS45 KMSO 220500
TAFBTM
TAF
KBTM 220524Z 2206/2306 16006KT P6SM BKN150
     FM221800 16010G20KT P6SM VCSH OVC120
     FM222200 27015G25KT P6SM -SHRA OVC050=



000
FTUS45 KMSO 220500
TAFMSO
TAF
KMSO 220524Z 2206/2306 11006KT P6SM OVC120
     FM221800 30008KT P6SM VCSH OVC080
     FM222200 33013G25KT P6SM -RA OVC050=



000
FTUS45 KMSO 220500
TAFSMN
TAF
KSMN 220524Z 2206/2306 VRB03KT P6SM BKN150
     FM221800 21010KT P6SM VCSH OVC090
     FM222200 33015G25KT P6SM -SHRA OVC050
      AMD LTD TO CLD VIS AND WIND=



    US Dept of Commerce
    National Oceanic and Atmospheric Administration
    National Weather Service
    1325 East West Highway
    Silver Spring, MD 20910
    Page Author: NWS Internet Services Team
Disclaimer
Information Quality
Credits
Glossary
Privacy Policy
Freedom of Information Act (FOIA)
About Us
Career Opportunities